Terminal Aerodrome Forecast
Issued by NWS

Home | Current Version | Previous Version | Text Only | Print | Product List | Glossary On
Versions: 1 2 3 4 5 6 7 8 9 10 11 12 13 14 15 16 17
439
FTUS42 TJSJ 221356 CCA
TAFJSJ
TAF COR
TJSJ 221356Z 2212/2312 09008KT P6SM VCSH SCT025 SCT050 BKN100
     FM221400 07015KT P6SM FEW030 SCT060 SCT120
     FM221800 07015G20KT P6SM VCSH SCT025 BKN050
     FM222300 09009KT P6SM FEW025 SCT070=

USA.gov is the U.S. government's official web portal to all federal, state and local government web resources and services.